North Bay Airport
CYYB : now visible

Airfield :











YOU CAN JOIN US ON...

 
LOGIN :

Register | Disclaimer

   EN    FR    IT 

 









Legend :    VFR   Marginal VFR   IFR   Intensive IFR   Very Intensive IFR
Visi :
Ceiling :
>= 8 km
>= 3000ft
5 to 8 km
1000 to 3000 ft
1500m to 5 km
500 to 1000 ft
800 to 1500m
200 to 500 ft
< 800m
< 200 ft
Symbols :   Thunderstorms  Fog  Heavy snow  Heavy precipitations  Wind > 20 kt







- Airport Elevation : 1215 ft
- IATA code : YYB


CYYB - North Bay

CURRENT METAR :
  • 191300Z 28014G20KT 15SM OVC003 21/20 A2974 RMK SF8 SLP068 DENSITY ALT 2400FT

EXPIRED METARs :
  • 191200Z 28013G18KT 20SM OVC005 20/20 A2974 RMK CU8 SLP068 DENSITY ALT 2400FT
  • 191138Z 25007KT 20SM BKN004 OVC010 20/19 A2974 RMK CU6SC2 SLP067 DENSITY ALT 2400FT
  • 191100Z 24007KT 20SM SCT005 OVC014 20/20 A2974 RMK CF4SC4 SLP067 DENSITY ALT 2300FT

TAF TAF CYYB
Valid from the 19 at 14:00 until the 20 at 02:00 UTC


191338Z 1914/2002 28012G22KT 5SM BR OVC003
TEMPO 1914/1916 P6SM NSW SCT006 BKN015
FM191600 24012G22KT P6SM BKN015
TEMPO 1916/1919 BKN030
FM192000 23015G25KT P6SM SCT040
TEMPO 1920/1924 BKN040
BECMG 1922/1924 24012KT RMK NXT FCST BY 192000Z
CZYZ FIR / North America



MET'MAP, your aeronautical weather chart ! - Copyright ORBIFLY December 2007 - Disclaimer

ORBIFLY MET'MAP TEAM :

Programming & Development : Alexandra Zaïnal
Concept & Development : Baudouin d'Aumeries
Co-Development & Prog : Marc-Olivier Méhu
Technical & hardware support : Manuel Goepfert

Contact : metmap@orbifly.com




SOURCES & CREDITS :

   NOAA       Earth
Advisory